Startpagina
METAR-TAF:

METAR-TAF

Vliegvelden :

Maastricht Aachen Airport

Maastricht Aken, Nederland

breedte: 50-55N, lengte: 005-47E, hoogte: 114 m

Actueel weer

Dit bericht is 17 minuten geleden gemaakt, om 14:25 UTC
Wind 8 kt uit het westzuidwesten, variërend tussen het zuidzuidwesten en het westnoordwesten
Temperatuur 22°C
Vochtigheid 65%
Druk 1019 hPa
Zicht 10 km of meer
Weinig wolken op 3100 ft
Verspreide wolken op 3600 ft
Geheel bewolkt op 4900 ft

METAR: EHBK 151425Z AUTO 25008KT 210V300 9999 FEW031 SCT036 OVC049 22/15 Q1019 NOSIG

Tijdstip: 16:42 (14:42 UTC)

Verwachting

Dit bericht is 3 uur en het 58 minuten geleden gemaakt, om 10:44 UTC
Verwachting geldig van 15 om 12 UTC tot 16 om 18 UTC
Wind 10 kt uit het westzuidwesten
Zicht 10 km of meer
Gebroken wolken op 2000 ft
Wijzigt naar
van 15 om 18 UTC tot 15 om 20 UTC
Wind 5 kt uit het zuidzuidwesten

TAF: EHBK 151044Z 1512/1618 24010KT 9999 BKN020 BECMG 1518/1520 20005KT

Waarnemingen en weersverwachtingen van meer dan 4000 vliegvelden (METAR en TAF).

De beschikbare stations zijn de gele en rode punten op de kaart.

Ga met uw muis naar het station om de naam te zien.

Klik dan om waarnemingen en weersverwachtingen te zien.

kaart wijzigen: klik op de groene knoppen met een zwart kruis om in te zoomen, op de groene knop met een streepje om uit te zoomen of op de groene pijlen voor aangrenzende kaarten.


METAR-TAF: